{
  "fields": [{"type":"int","id":"_id"},{"info":{"type_override":"text","notes":"Hora UTC de lectura de los datos (AAAA-MM-DD HH:mm:SS)(+1 para CET invierno, +2 para CET verano)","label":"date"},"type":"text","id":"TIMESTAMP"},{"info":{"type_override":"text","notes":"Record Number - identificador del registro","label":"int"},"type":"text","id":"RECORD"},{"info":{"type_override":"text","notes":"Velocidad media del viento en el periodo de 10 minutos leído","label":"float"},"type":"text","id":"VV_S_WVT"},{"info":{"type_override":"text","notes":"Dirección media del viento en el periodo de 10 minutos leído","label":"float"},"type":"text","id":"DV_D1_WVT"},{"info":{"type_override":"text","notes":"Velocidad máxima del viento en el periodo de 10 minutos leído","label":"float"},"type":"text","id":"VV10m3Seg_Max"},{"info":{"type_override":"text","notes":"Dirección de la racha máxima del viento en el periodo de 10 minutos leído","label":"text"},"type":"text","id":"DV10m3Seg_SMM"},{"info":{"type_override":"text","notes":"Presión atmosférica media en el periodo de 10 minutos leído","label":"text"},"type":"text","id":"PRE_Avg"},{"info":{"type_override":"text","notes":"Temperatura del aire media en el periodo de 10 minutos leído","label":"text"},"type":"text","id":"TEM_Avg"},{"info":{"type_override":"text","notes":"Humedad relativa del aire promedio en el periodo de 10 minutos leído","label":"text"},"type":"text","id":"HUM_Avg"},{"info":{"type_override":"text","notes":"Radiación solar media en el periodo de 10 minutos leído","label":"text"},"type":"text","id":"RAD_Avg"},{"info":{"type_override":"text","notes":"Precipitación acumulada en el periodo de 10 minutos leído","label":"text"},"type":"text","id":"PLU_Tot"}],
  "records": [
    [1744157,"2026-09-03 00:00:00","7009","0.35200000000000004","225.2","0.98","208.7","1021.7560000000001","25.27","82.6","0.0","0"],
    [1744158,"2026-09-03 00:10:00","7010","0.396","260.8","0.784","285.3","1021.7360000000001","25.09","80.7","0.0","0"],
    [1744159,"2026-09-03 00:20:00","7011","0.408","241.2","0.7190000000000001","232.4","1021.663","24.63","75.83","0.0","0"],
    [1744160,"2026-09-03 00:30:00","7012","0.9","271.1","1.339","271.3","1021.623","24.94","73.01","0.0","0"],
    [1744161,"2026-09-03 00:40:00","7013","0.581","289.7","0.915","301.1","1021.579","24.99","72.15","0.0","0"],
    [1744162,"2026-09-03 00:50:00","7014","0.111","257.7","0.49","260.9","1021.615","25.25","71.38","0.0","0"],
    [1744163,"2026-09-03 01:00:00","7015","0.006","183.2","0.425","183.2","1021.552","25.41","73.1","0.0","0"],
    [1744164,"2026-09-03 01:10:00","7016","0.426","187.0","0.653","156.0","1021.534","25.42","74.14","0.0","0"],
    [1744165,"2026-09-03 01:20:00","7017","0.311","172.5","0.7190000000000001","166.9","1021.585","25.37","77.01","0.0","0"],
    [1744166,"2026-09-03 01:30:00","7018","0.701","287.4","1.013","286.2","1021.6239999999999","24.64","73.43","0.0","0"],
    [1744167,"2026-09-03 01:40:00","7019","1.218","272.3","1.47","263.4","1021.5880000000001","24.68","70.86","0.0","0"],
    [1744168,"2026-09-03 01:50:00","7020","1.115","268.8","1.307","275.6","1021.543","24.86","69.47","0.0","0"],
    [1744169,"2026-09-03 02:00:00","7021","0.953","284.8","1.111","288.7","1021.5010000000001","24.92","68.47","0.0","0"],
    [1744170,"2026-09-03 02:10:00","7022","0.736","282.2","0.98","285.3","1021.477","24.97","68.84","0.0","0"],
    [1744171,"2026-09-03 02:20:00","7023","0.259","252.7","0.7190000000000001","250.4","1021.5","25.05","69.49","0.0","0"],
    [1744172,"2026-09-03 02:30:00","7024","0.258","263.8","1.013","272.6","1021.471","24.96","69.98","0.0","0"],
    [1744173,"2026-09-03 02:40:00","7025","0.904","277.9","1.2409999999999999","270.8","1021.472","24.76","70.84","0.0","0"],
    [1744174,"2026-09-03 02:50:00","7026","1.2819999999999998","271.8","1.5030000000000001","267.6","1021.4730000000001","24.74","70.56","0.0","0"],
    [1744175,"2026-09-03 03:00:00","7027","1.046","270.0","1.209","268.2","1021.444","24.84","69.93","0.0","0"],
    [1744176,"2026-09-03 03:10:00","7028","0.6729999999999999","262.5","1.013","260.9","1021.3810000000001","24.87","69.64","0.0","0"],
    [1744177,"2026-09-03 03:20:00","7029","0.648","270.6","0.9470000000000001","265.1","1021.336","24.78","69.29","0.0","0"],
    [1744178,"2026-09-03 03:30:00","7030","0.391","263.5","0.7190000000000001","258.2","1021.26","24.83","69.41","0.0","0"],
    [1744179,"2026-09-03 03:40:00","7031","0.695","285.4","0.9470000000000001","282.2","1021.23","24.72","69.3","0.0","0"],
    [1744180,"2026-09-03 03:50:00","7032","1.0270000000000001","269.7","1.3719999999999999","268.3","1021.205","24.67","68.37","0.0","0"],
    [1744181,"2026-09-03 04:00:00","7033","1.355","259.2","1.601","258.1","1021.189","24.68","66.88","0.0","0"],
    [1744182,"2026-09-03 04:10:00","7034","1.239","258.3","1.764","260.8","1021.165","24.69","66.27","0.0","0"],
    [1744183,"2026-09-03 04:20:00","7035","1.5130000000000001","262.4","1.993","261.7","1021.1519999999999","24.5","65.67","0.0","0"],
    [1744184,"2026-09-03 04:30:00","7036","1.7819999999999998","262.9","2.0580000000000003","261.2","1021.1410000000001","24.38","65.1","0.0","0"],
    [1744185,"2026-09-03 04:40:00","7037","1.98","261.6","2.189","263.8","1021.125","24.31","65.28","0.0","0"],
    [1744186,"2026-09-03 04:50:00","7038","1.92","259.9","2.156","260.8","1021.181","24.27","64.71","0.0","0"],
    [1744187,"2026-09-03 05:00:00","7039","1.7919999999999998","261.1","2.352","265.2","1021.245","24.37","63.97","0.0","0"],
    [1744188,"2026-09-03 05:10:00","7040","1.946","262.3","2.483","263.4","1021.302","24.29","64.16","0.0","0"],
    [1744189,"2026-09-03 05:20:00","7041","1.939","266.2","2.156","263.2","1021.388","24.23","64.61","0.662","0"],
    [1744190,"2026-09-03 05:30:00","7042","1.857","267.0","2.123","268.0","1021.4580000000001","24.14","64.78","6.235","0"],
    [1744191,"2026-09-03 05:40:00","7043","1.9480000000000002","267.9","2.254","267.2","1021.574","24.16","64.54","18.69","0"],
    [1744192,"2026-09-03 05:50:00","7044","1.507","270.8","1.7309999999999999","267.5","1021.6510000000001","24.48","63.66","39.33","0"],
    [1744193,"2026-09-03 06:00:00","7045","1.3159999999999998","272.8","1.666","265.0","1021.75","25.02","61.92","62.88","0"],
    [1744194,"2026-09-03 06:10:00","7046","1.143","273.4","1.4369999999999998","264.4","1021.835","25.51","60.27","87.9","0"],
    [1744195,"2026-09-03 06:20:00","7047","1.192","260.4","1.666","261.8","1021.953","26.05","57.97","113.9","0"],
    [1744196,"2026-09-03 06:30:00","7048","1.4140000000000001","265.0","2.156","264.3","1022.079","26.35","56.81","140.9","0"],
    [1744197,"2026-09-03 06:40:00","7049","1.476","257.8","2.254","263.2","1022.268","26.29","56.52","167.7","0"],
    [1744198,"2026-09-03 06:50:00","7050","1.4","264.7","2.189","266.2","1022.317","26.51","55.27","197.3","0"],
    [1744199,"2026-09-03 07:00:00","7051","1.5619999999999998","280.6","2.287","262.8","1022.405","26.77","54.59","231.8","0"],
    [1744200,"2026-09-03 07:10:00","7052","1.048","273.4","1.535","282.8","1022.4830000000001","27.33","52.88","260.1","0"],
    [1744201,"2026-09-03 07:20:00","7053","0.6970000000000001","264.3","1.339","269.6","1022.546","27.62","51.57","291.1","0"],
    [1744202,"2026-09-03 07:30:00","7054","0.002","265.3","0.22899999999999998","270.7","1022.557","27.78","54.33","319.9","0"],
    [1744203,"2026-09-03 07:40:00","7055","0.0","0.0","0.0","0.0","1022.543","27.25","57.06","346.5","0"],
    [1744204,"2026-09-03 07:50:00","7056","0.0","0.0","0.0","0.0","1022.5419999999999","26.81","59.3","383.2","0"],
    [1744205,"2026-09-03 08:00:00","7057","0.423","136.0","1.3719999999999999","139.0","1022.538","26.85","58.72","415.6","0"],
    [1744206,"2026-09-03 08:10:00","7058","1.032","141.8","1.5030000000000001","138.7","1022.5139999999999","27.09","56.39","445.0","0"],
    [1744207,"2026-09-03 08:20:00","7059","1.34","131.2","1.633","135.4","1022.5260000000001","26.98","57.0","478.1","0"],
    [1744208,"2026-09-03 08:30:00","7060","1.589","110.9","2.0909999999999997","115.4","1022.565","27.15","55.85","511.5","0"],
    [1744209,"2026-09-03 08:40:00","7061","1.5630000000000002","114.9","2.0580000000000003","108.7","1022.669","27.12","56.11","543.3","0"],
    [1744210,"2026-09-03 08:50:00","7062","1.808","98.1","2.45","93.6","1022.7289999999999","27.15","57.58","574.9","0"],
    [1744211,"2026-09-03 09:00:00","7063","1.867","105.6","2.352","103.1","1022.865","27.0","59.71","600.8","0"],
    [1744212,"2026-09-03 09:10:00","7064","1.881","117.1","2.45","124.5","1022.982","27.01","61.05","624.9","0"],
    [1744213,"2026-09-03 09:20:00","7065","2.109","122.6","2.483","119.3","1023.071","27.04","59.9","648.4","0"],
    [1744214,"2026-09-03 09:30:00","7066","1.699","130.3","2.156","128.2","1023.112","27.33","60.69","668.0","0"],
    [1744215,"2026-09-03 09:40:00","7067","1.891","124.5","2.287","109.2","1023.15","27.24","62.08","689.8","0"],
    [1744216,"2026-09-03 09:50:00","7068","2.155","112.1","2.5810000000000004","108.3","1023.105","27.17","62.6","710.7","0"],
    [1744217,"2026-09-03 10:00:00","7069","2.31","135.2","2.7769999999999997","131.5","1023.074","27.16","63.15","729.5","0"],
    [1744218,"2026-09-03 10:10:00","7070","2.246","141.0","2.8089999999999997","188.4","1023.075","27.34","60.6","747.3","0"],
    [1744219,"2026-09-03 10:20:00","7071","2.645","152.4","3.103","159.1","1023.065","27.55","62.06","764.9","0"],
    [1744220,"2026-09-03 10:30:00","7072","2.733","150.4","3.299","152.4","1022.988","27.6","61.85","779.0","0"],
    [1744221,"2026-09-03 10:40:00","7073","3.011","156.8","3.495","150.4","1022.8439999999999","27.63","63.93","792.0","0"],
    [1744222,"2026-09-03 10:50:00","7074","3.327","163.4","3.7569999999999997","166.9","1022.695","27.62","67.18","805.0","0"],
    [1744223,"2026-09-03 11:00:00","7075","3.773","169.6","4.2139999999999995","172.5","1022.622","27.42","70.05","814.0","0"],
    [1744224,"2026-09-03 11:10:00","7076","4.018","168.5","4.573","168.8","1022.586","27.38","70.49","822.0","0"],
    [1744225,"2026-09-03 11:20:00","7077","4.5169999999999995","170.0","4.9","169.9","1022.46","27.38","72.14","830.0","0"],
    [1744226,"2026-09-03 11:30:00","7078","4.271","175.9","4.998","172.2","1022.3919999999999","27.34","70.17","832.0","0"],
    [1744227,"2026-09-03 11:40:00","7079","4.02","177.8","4.998","168.8","1022.3530000000001","27.84","67.7","836.0","0"],
    [1744228,"2026-09-03 11:50:00","7080","4.966","168.3","5.521","168.9","1022.2769999999999","27.51","68.25","837.0","0"],
    [1744229,"2026-09-03 12:00:00","7081","4.643","177.0","5.553","175.8","1022.268","27.7","67.5","836.0","0"],
    [1744230,"2026-09-03 12:10:00","7082","4.088","178.1","5.521","175.9","1022.2919999999999","27.96","70.58","833.0","0"],
    [1744231,"2026-09-03 12:20:00","7083","4.88","170.2","5.684","159.8","1022.2339999999999","27.64","72.41","829.0","0"],
    [1744232,"2026-09-03 12:30:00","7084","4.845","183.8","5.847","177.3","1022.1560000000001","27.76","72.47","827.0","0"],
    [1744233,"2026-09-03 12:40:00","7085","4.542","178.0","6.272","192.4","1022.211","27.82","73.24","821.0","0"],
    [1744234,"2026-09-03 12:50:00","7086","5.0680000000000005","173.0","7.285","155.7","1022.2689999999999","27.6","74.96","812.0","0"],
    [1744235,"2026-09-03 13:00:00","7087","4.773","177.1","6.305","174.3","1022.2389999999999","27.59","74.94","802.0","0"],
    [1744236,"2026-09-03 13:10:00","7088","5.188","173.9","6.337000000000001","172.3","1022.185","27.69","74.48","791.7","0"],
    [1744237,"2026-09-03 13:20:00","7089","5.459","177.5","6.599","170.2","1022.059","27.62","74.51","777.4","0"],
    [1744238,"2026-09-03 13:30:00","7090","5.7620000000000005","186.1","7.252000000000001","189.4","1021.932","27.89","72.18","765.1","0"],
    [1744239,"2026-09-03 13:40:00","7091","5.98","183.7","7.775","186.1","1021.8330000000001","27.96","71.97","751.5","0"],
    [1744240,"2026-09-03 13:50:00","7092","5.917000000000001","181.6","7.611000000000001","175.4","1021.71","27.94","72.27","733.9","0"],
    [1744241,"2026-09-03 14:00:00","7093","6.087999999999999","185.4","7.84","191.9","1021.664","27.93","72.36","716.4","0"],
    [1744242,"2026-09-03 14:10:00","7094","6.31","184.1","8.79","189.8","1021.571","27.89","72.94","695.2","0"],
    [1744243,"2026-09-03 14:20:00","7095","7.175","190.2","8.82","192.2","1021.4789999999999","27.85","72.17","672.5","0"],
    [1744244,"2026-09-03 14:30:00","7096","6.99","189.8","9.57","192.6","1021.416","27.9","71.92","648.5","0"],
    [1744245,"2026-09-03 14:40:00","7097","6.901","188.3","8.82","191.8","1021.427","27.88","71.88","623.0","0"],
    [1744246,"2026-09-03 14:50:00","7098","6.419","189.9","9.21","189.4","1021.512","28.13","69.9","594.2","0"],
    [1744247,"2026-09-03 15:00:00","7099","6.626","192.0","8.92","193.9","1021.435","28.18","70.6","568.5","0"],
    [1744248,"2026-09-03 15:10:00","7100","6.063","194.1","8.33","198.0","1021.372","28.23","70.52","542.0","0"],
    [1744249,"2026-09-03 15:20:00","7101","6.143","189.7","8.95","191.4","1021.37","28.2","70.57","513.5","0"],
    [1744250,"2026-09-03 15:30:00","7102","6.617999999999999","191.2","9.18","190.3","1021.301","28.18","70.52","485.2","0"],
    [1744251,"2026-09-03 15:40:00","7103","5.797000000000001","202.3","8.07","210.7","1021.165","28.59","68.83","457.3","0"],
    [1744252,"2026-09-03 15:50:00","7104","6.263","201.8","10.78","203.4","1021.059","28.7","68.08","429.7","0"],
    [1744253,"2026-09-03 16:00:00","7105","7.045","196.5","11.27","210.0","1021.049","28.42","69.45","398.9","0"],
    [1744254,"2026-09-03 16:10:00","7106","5.0280000000000005","210.9","8.89","201.8","1021.0980000000001","28.8","68.45","366.1","0"],
    [1744255,"2026-09-03 16:20:00","7107","5.182","202.5","8.0","205.9","1020.98","28.83","68.62","333.1","0"],
    [1744256,"2026-09-03 16:30:00","7108","5.606","212.4","8.79","201.7","1020.933","28.76","68.75","301.4","0"],
    [1744257,"2026-09-03 16:40:00","7109","5.282","216.3","8.46","232.2","1020.905","28.66","69.4","262.7","0"],
    [1744258,"2026-09-03 16:50:00","7110","5.4670000000000005","214.9","8.26","226.4","1020.925","28.62","69.41","231.7","0"],
    [1744259,"2026-09-03 17:00:00","7111","5.931","224.6","8.56","238.1","1020.9680000000001","28.51","70.31","204.0","0"],
    [1744260,"2026-09-03 17:10:00","7112","5.513999999999999","219.0","9.28","226.5","1020.9789999999999","28.43","70.3","157.3","0"],
    [1744261,"2026-09-03 17:20:00","7113","4.975","214.5","8.23","215.2","1021.01","28.39","70.81","155.3","0"],
    [1744262,"2026-09-03 17:30:00","7114","5.4670000000000005","216.3","7.6770000000000005","229.4","1021.018","28.27","71.95","100.3","0"],
    [1744263,"2026-09-03 17:40:00","7115","3.738","214.3","6.795","203.8","1021.11","28.26","72.11","93.1","0"],
    [1744264,"2026-09-03 17:50:00","7116","4.956","198.9","7.4479999999999995","185.6","1021.0939999999999","28.06","72.51","68.5","0"],
    [1744265,"2026-09-03 18:00:00","7117","4.069","211.0","8.56","225.9","1021.1560000000001","27.98","72.71","42.07","0"],
    [1744266,"2026-09-03 18:10:00","7118","4.537","199.7","7.0889999999999995","192.0","1021.164","27.9","73.49","20.37","0"],
    [1744267,"2026-09-03 18:20:00","7119","5.1","200.7","7.35","190.1","1021.166","27.68","74.19","7.492000000000001","0"],
    [1744268,"2026-09-03 18:30:00","7120","4.57","201.2","7.513","198.2","1021.143","27.66","73.95","1.51","0"],
    [1744269,"2026-09-03 18:40:00","7121","3.895","202.0","6.893","196.0","1021.2389999999999","27.62","74.35","0.0","0"],
    [1744270,"2026-09-03 18:50:00","7122","4.211","203.9","6.435","196.7","1021.2410000000001","27.63","74.3","0.0","0"],
    [1744271,"2026-09-03 19:00:00","7123","3.9819999999999998","203.6","6.109","210.4","1021.372","27.53","74.46","0.0","0"],
    [1744272,"2026-09-03 19:10:00","7124","3.43","202.4","5.521","210.1","1021.47","27.59","73.87","0.0","0"],
    [1744273,"2026-09-03 19:20:00","7125","3.3169999999999997","207.8","5.063","195.6","1021.584","27.56","73.96","0.0","0"],
    [1744274,"2026-09-03 19:30:00","7126","4.043","199.6","5.194","201.7","1021.688","27.38","71.25","0.0","0"],
    [1744275,"2026-09-03 19:40:00","7127","3.997","200.9","5.2589999999999995","205.8","1021.8389999999999","27.48","69.74","0.0","0"],
    [1744276,"2026-09-03 19:50:00","7128","2.786","208.0","4.998","195.6","1021.987","27.47","70.31","0.0","0"],
    [1744277,"2026-09-03 20:00:00","7129","2.1630000000000003","220.6","3.7569999999999997","237.3","1022.002","27.55","70.05","0.0","0"],
    [1744278,"2026-09-03 20:10:00","7130","2.247","217.1","4.083","201.3","1022.02","27.52","69.76","0.0","0"],
    [1744279,"2026-09-03 20:20:00","7131","1.7919999999999998","228.5","3.5610000000000004","202.8","1022.0319999999999","27.57","70.07","0.0","0"],
    [1744280,"2026-09-03 20:30:00","7132","2.171","240.5","4.508","251.5","1022.0139999999999","27.56","70.29","0.0","0"],
    [1744281,"2026-09-03 20:40:00","7133","3.113","258.6","4.508","257.7","1021.98","27.41","70.03","0.0","0"],
    [1744282,"2026-09-03 20:50:00","7134","3.4819999999999998","253.6","5.4879999999999995","258.7","1021.967","27.35","70.2","0.0","0"],
    [1744283,"2026-09-03 21:00:00","7135","2.87","246.0","5.194","250.0","1021.915","27.33","70.35","0.0","0"],
    [1744284,"2026-09-03 21:10:00","7136","3.625","246.0","5.422999999999999","269.2","1021.8710000000001","27.35","70.28","0.0","0"],
    [1744285,"2026-09-03 21:20:00","7137","3.3960000000000004","245.8","5.684","255.7","1021.8560000000001","27.3","70.44","0.0","0"],
    [1744286,"2026-09-03 21:30:00","7138","3.3710000000000004","248.8","6.011","255.5","1021.872","27.27","70.68","0.0","0"],
    [1744287,"2026-09-03 21:40:00","7139","3.1289999999999996","244.5","5.586","266.9","1021.7810000000001","27.22","71.1","0.0","0"],
    [1744288,"2026-09-03 21:50:00","7140","2.678","246.4","5.1610000000000005","249.1","1021.7610000000001","27.13","71.66","0.0","0"],
    [1744289,"2026-09-03 22:00:00","7141","1.959","258.5","4.149","270.4","1021.765","27.06","72.42","0.0","0"],
    [1744290,"2026-09-03 22:10:00","7142","2.137","256.5","3.822","254.5","1021.696","27.02","73.77","0.0","0"],
    [1744291,"2026-09-03 22:20:00","7143","2.352","257.4","4.475","271.7","1021.7080000000001","26.91","75.06","0.0","0"],
    [1744292,"2026-09-03 22:30:00","7144","1.423","259.5","2.7769999999999997","225.2","1021.712","26.78","75.51","0.0","0"],
    [1744293,"2026-09-03 22:40:00","7145","1.819","267.0","3.299","275.4","1021.7560000000001","26.66","75.91","0.0","0"],
    [1744294,"2026-09-03 22:50:00","7146","2.715","266.8","4.4430000000000005","260.5","1021.757","26.6","76.08","0.0","0"],
    [1744295,"2026-09-03 23:00:00","7147","2.189","265.6","4.018","266.4","1021.797","26.52","75.86","0.0","0"],
    [1744296,"2026-09-03 23:10:00","7148","1.841","268.2","3.43","274.3","1021.81","26.52","75.62","0.0","0"],
    [1744297,"2026-09-03 23:20:00","7149","1.4369999999999998","267.4","2.94","271.0","1021.7810000000001","26.52","75.74","0.0","0"],
    [1744298,"2026-09-03 23:30:00","7150","1.778","264.2","3.136","255.1","1021.753","26.51","75.75","0.0","0"],
    [1744299,"2026-09-03 23:40:00","7151","1.5830000000000002","272.6","2.45","270.1","1021.763","26.46","75.93","0.0","0"],
    [1744300,"2026-09-03 23:50:00","7152","1.5190000000000001","273.7","2.6460000000000004","255.3","1021.721","26.44","76.19","0.0","0"],
    [1744301,"2026-09-04 00:00:00","7153","1.956","274.7","2.7439999999999998","267.4","1021.633","26.36","76.57","0.0","0"],
    [1744302,"2026-09-04 00:10:00","7154","2.0869999999999997","270.3","3.267","271.1","1021.553","26.33","76.74","0.0","0"],
    [1744303,"2026-09-04 00:20:00","7155","1.994","276.1","3.201","264.4","1021.498","26.31","76.95","0.0","0"],
    [1744304,"2026-09-04 00:30:00","7156","2.11","275.7","3.332","265.1","1021.3939999999999","26.22","77.12","0.0","0"],
    [1744305,"2026-09-04 00:40:00","7157","2.0669999999999997","277.7","2.842","271.3","1021.311","26.16","77.2","0.0","0"],
    [1744306,"2026-09-04 00:50:00","7158","2.148","276.8","3.071","272.9","1021.245","26.14","77.27","0.0","0"],
    [1744307,"2026-09-04 01:00:00","7159","2.031","273.8","3.0380000000000003","266.1","1021.166","26.08","77.42","0.0","0"],
    [1744308,"2026-09-04 01:10:00","7160","1.845","272.6","2.7769999999999997","272.9","1021.056","26.01","77.28","0.0","0"],
    [1744309,"2026-09-04 01:20:00","7161","2.226","269.9","3.6260000000000003","266.4","1021.0210000000001","25.91","77.15","0.0","0"],
    [1744310,"2026-09-04 01:30:00","7162","2.2319999999999998","269.9","3.495","277.6","1020.9760000000001","25.86","77.38","0.0","0"],
    [1744311,"2026-09-04 01:40:00","7163","2.477","268.0","3.43","266.9","1020.9069999999999","25.81","77.58","0.0","0"],
    [1744312,"2026-09-04 01:50:00","7164","2.251","270.7","3.495","275.0","1020.821","25.74","78.11","0.0","0"],
    [1744313,"2026-09-04 02:00:00","7165","2.114","273.4","3.365","279.9","1020.828","25.68","78.54","0.0","0"],
    [1744314,"2026-09-04 02:10:00","7166","2.21","271.8","3.234","258.9","1020.773","25.63","78.72","0.0","0"],
    [1744315,"2026-09-04 02:20:00","7167","2.017","266.8","3.071","256.7","1020.622","25.58","78.85","0.0","0"],
    [1744316,"2026-09-04 02:30:00","7168","2.1959999999999997","267.6","3.1689999999999996","274.5","1020.552","25.57","78.77","0.0","0"],
    [1744317,"2026-09-04 02:40:00","7169","1.974","266.4","3.0380000000000003","263.8","1020.5219999999999","25.53","78.88","0.0","0"],
    [1744318,"2026-09-04 02:50:00","7170","2.035","273.1","2.7110000000000003","268.3","1020.454","25.45","79.25","0.0","0"],
    [1744319,"2026-09-04 03:00:00","7171","2.084","271.1","3.332","265.3","1020.387","25.41","79.24","0.0","0"],
    [1744320,"2026-09-04 03:10:00","7172","1.767","270.8","3.071","265.2","1020.258","25.36","78.73","0.0","0"],
    [1744321,"2026-09-04 03:20:00","7173","1.801","263.0","2.842","265.4","1020.2239999999999","25.32","78.37","0.0","0"],
    [1744322,"2026-09-04 03:30:00","7174","2.113","259.5","3.1689999999999996","259.9","1020.145","25.32","78.07","0.0","0"],
    [1744323,"2026-09-04 03:40:00","7175","1.734","241.2","3.071","251.7","1020.13","25.39","77.72","0.0","0"],
    [1744324,"2026-09-04 03:50:00","7176","1.656","260.0","3.005","261.5","1020.052","25.34","78.09","0.0","0"],
    [1744325,"2026-09-04 04:00:00","7177","1.871","250.8","3.495","275.4","1020.048","25.35","78.14","0.0","0"],
    [1744326,"2026-09-04 04:10:00","7178","2.072","264.8","3.103","275.4","1019.9810000000001","25.33","78.27","0.0","0"],
    [1744327,"2026-09-04 04:20:00","7179","1.6740000000000002","243.6","2.875","260.2","1019.952","25.35","78.25","0.0","0"],
    [1744328,"2026-09-04 04:30:00","7180","1.906","245.7","3.43","256.5","1019.8760000000001","25.42","77.69","0.0","0"],
    [1744329,"2026-09-04 04:40:00","7181","2.073","251.5","3.463","266.7","1019.797","25.31","77.81","0.0","0"],
    [1744330,"2026-09-04 04:50:00","7182","1.926","254.0","4.181","262.8","1019.7460000000001","25.3","77.33","0.0","0"],
    [1744331,"2026-09-04 05:00:00","7183","1.402","241.4","2.842","266.6","1019.703","25.32","77.29","0.0","0"],
    [1744332,"2026-09-04 05:10:00","7184","2.565","235.1","3.887","246.6","1019.637","25.34","77.18","0.0","0"],
    [1744333,"2026-09-04 05:20:00","7185","2.275","237.9","3.463","249.1","1019.6289999999999","25.31","77.19","0.706","0"],
    [1744334,"2026-09-04 05:30:00","7186","2.046","241.5","3.985","225.3","1019.6030000000001","25.2","77.28","5.03","0"],
    [1744335,"2026-09-04 05:40:00","7187","2.0669999999999997","247.8","4.051","245.7","1019.658","25.07","77.46","14.72","0"],
    [1744336,"2026-09-04 05:50:00","7188","2.366","265.2","4.247","276.9","1019.742","25.04","77.19","33.56","0"],
    [1744337,"2026-09-04 06:00:00","7189","2.417","264.5","3.7569999999999997","262.6","1019.7760000000001","25.15","76.56","55.41","0"],
    [1744338,"2026-09-04 06:10:00","7190","2.37","267.4","3.887","261.8","1019.807","25.39","75.61","80.0","0"],
    [1744339,"2026-09-04 06:20:00","7191","2.471","266.3","4.181","268.5","1019.815","25.72","74.2","107.4","0"],
    [1744340,"2026-09-04 06:30:00","7192","2.476","261.1","4.345","256.7","1019.878","25.92","72.34","136.3","0"],
    [1744341,"2026-09-04 06:40:00","7193","2.238","260.3","3.7889999999999997","254.5","1019.953","26.31","69.99","164.7","0"],
    [1744342,"2026-09-04 06:50:00","7194","2.7739999999999996","260.6","4.802","266.5","1020.005","26.49","69.23","196.8","0"],
    [1744343,"2026-09-04 07:00:00","7195","2.171","260.0","4.638999999999999","268.3","1019.9889999999999","26.76","68.36","229.8","0"],
    [1744344,"2026-09-04 07:10:00","7196","1.712","254.1","3.463","261.1","1019.9810000000001","27.01","67.88","264.1","0"],
    [1744345,"2026-09-04 07:20:00","7197","2.135","241.6","4.4430000000000005","245.5","1019.94","27.15","68.58","298.4","0"],
    [1744346,"2026-09-04 07:30:00","7198","2.56","263.2","4.345","272.4","1019.948","27.24","66.91","330.3","0"],
    [1744347,"2026-09-04 07:40:00","7199","2.574","269.6","4.018","289.1","1019.961","27.56","64.88","360.0","0"],
    [1744348,"2026-09-04 07:50:00","7200","1.955","238.7","3.528","232.1","1019.94","27.68","64.64","390.7","0"],
    [1744349,"2026-09-04 08:00:00","7201","1.722","244.3","3.365","220.4","1019.9069999999999","28.27","62.88","419.3","0"],
    [1744350,"2026-09-04 08:10:00","7202","2.5069999999999997","232.9","4.279","240.4","1019.921","28.23","62.53","450.8","0"],
    [1744351,"2026-09-04 08:20:00","7203","2.233","233.8","3.365","221.5","1019.949","28.13","62.94","479.3","0"],
    [1744352,"2026-09-04 08:30:00","7204","1.8090000000000002","231.3","3.267","228.7","1020.03","28.5","62.01","506.9","0"],
    [1744353,"2026-09-04 08:40:00","7205","1.786","224.1","3.071","194.1","1020.1189999999999","29.22","59.4","534.0","0"],
    [1744354,"2026-09-04 08:50:00","7206","1.964","193.8","3.332","179.5","1020.183","29.36","59.73","561.1","0"],
    [1744355,"2026-09-04 09:00:00","7207","3.233","161.3","4.475","166.6","1020.2130000000001","28.2","70.59","593.2","0"],
    [1744356,"2026-09-04 09:10:00","7208","4.308","173.8","5.292000000000001","185.9","1020.203","27.89","73.59","618.1","0"],
    [1744357,"2026-09-04 09:20:00","7209","4.706","182.0","5.684","190.7","1020.193","27.82","74.61","641.4","0"],
    [1744358,"2026-09-04 09:30:00","7210","4.843999999999999","178.5","6.403","187.5","1020.203","27.83","75.66","662.5","0"],
    [1744359,"2026-09-04 09:40:00","7211","5.504","182.2","7.382999999999999","186.9","1020.183","27.89","74.73","682.9","0"],
    [1744360,"2026-09-04 09:50:00","7212","5.553999999999999","183.2","7.023","186.1","1020.221","28.02","74.55","702.6","0"],
    [1744361,"2026-09-04 10:00:00","7213","6.255","186.6","8.17","186.2","1020.204","28.11","74.32","722.0","0"],
    [1744362,"2026-09-04 10:10:00","7214","5.7589999999999995","194.3","8.23","187.5","1020.2639999999999","28.15","74.52","740.0","0"],
    [1744363,"2026-09-04 10:20:00","7215","5.446000000000001","193.6","7.4479999999999995","193.5","1020.257","28.42","73.44","756.6","0"],
    [1744364,"2026-09-04 10:30:00","7216","5.812","192.6","7.872999999999999","201.7","1020.185","28.41","73.77","773.9","0"],
    [1744365,"2026-09-04 10:40:00","7217","5.327999999999999","197.5","6.9910000000000005","191.9","1020.165","28.49","73.6","786.8","0"],
    [1744366,"2026-09-04 10:50:00","7218","5.612","194.1","7.481","192.3","1020.077","28.44","74.34","799.5","0"],
    [1744367,"2026-09-04 11:00:00","7219","4.731","203.3","6.86","193.5","1020.071","28.87","72.46","807.0","0"],
    [1744368,"2026-09-04 11:10:00","7220","5.351","196.4","7.872999999999999","214.8","1019.931","28.95","72.17","817.0","0"],
    [1744369,"2026-09-04 11:20:00","7221","4.523","205.6","6.827000000000001","214.5","1019.934","29.1","71.03","821.0","0"],
    [1744370,"2026-09-04 11:30:00","7222","5.603","195.5","8.43","195.6","1019.9169999999999","29.18","71.72","828.0","0"],
    [1744371,"2026-09-04 11:40:00","7223","6.228","193.9","8.3","192.8","1019.846","28.67","74.1","832.0","0"],
    [1744372,"2026-09-04 11:50:00","7224","6.5920000000000005","191.7","8.23","189.1","1019.676","28.47","75.04","835.0","0"],
    [1744373,"2026-09-04 12:00:00","7225","6.5089999999999995","189.7","8.04","178.1","1019.568","28.3","76.19","837.0","0"],
    [1744374,"2026-09-04 12:10:00","7226","6.544","190.8","8.4","191.0","1019.543","28.28","76.44","837.0","0"],
    [1744375,"2026-09-04 12:20:00","7227","6.916","196.0","9.15","194.5","1019.471","28.49","75.05","832.0","0"],
    [1744376,"2026-09-04 12:30:00","7228","6.053","197.9","8.04","203.7","1019.437","28.81","73.92","827.0","0"],
    [1744377,"2026-09-04 12:40:00","7229","6.053","199.9","9.6","197.5","1019.3939999999999","28.92","73.53","820.0","0"],
    [1744378,"2026-09-04 12:50:00","7230","5.921","199.2","9.57","195.1","1019.288","28.93","74.03","812.0","0"],
    [1744379,"2026-09-04 13:00:00","7231","7.572","199.2","10.94","193.9","1019.195","28.85","73.58","806.0","0"],
    [1744380,"2026-09-04 13:10:00","7232","7.0120000000000005","199.7","10.81","184.0","1019.107","28.82","73.81","794.0","0"],
    [1744381,"2026-09-04 13:20:00","7233","6.306","201.7","9.83","187.5","1019.057","29.18","72.12","782.2","0"],
    [1744382,"2026-09-04 13:30:00","7234","5.353","205.4","8.72","185.7","1019.041","29.33","71.56","765.9","0"],
    [1744383,"2026-09-04 13:40:00","7235","5.979","200.0","10.0","206.1","1019.012","29.23","71.98","749.4","0"],
    [1744384,"2026-09-04 13:50:00","7236","5.636","202.2","8.79","197.8","1018.992","29.23","71.9","731.0","0"],
    [1744385,"2026-09-04 14:00:00","7237","6.336","199.3","10.36","201.3","1018.916","29.09","72.28","712.7","0"],
    [1744386,"2026-09-04 14:10:00","7238","5.468999999999999","200.1","8.85","209.3","1018.8710000000001","29.24","70.7","690.8","0"],
    [1744387,"2026-09-04 14:20:00","7239","6.282","197.7","9.9","198.5","1018.7610000000001","29.13","70.65","668.6","0"],
    [1744388,"2026-09-04 14:30:00","7240","6.272","201.1","9.21","194.1","1018.77","28.94","71.75","644.1","0"],
    [1744389,"2026-09-04 14:40:00","7241","6.597","192.3","10.16","189.1","1018.7260000000001","28.79","73.25","617.1","0"],
    [1744390,"2026-09-04 14:50:00","7242","5.922000000000001","200.6","8.92","192.6","1018.722","28.96","72.1","587.8","0"],
    [1744391,"2026-09-04 15:00:00","7243","6.777","198.8","10.32","200.2","1018.6310000000001","29.1","70.52","561.8","0"],
    [1744392,"2026-09-04 15:10:00","7244","6.88","189.2","9.28","187.7","1018.615","28.66","74.09","536.3","0"],
    [1744393,"2026-09-04 15:20:00","7245","5.723","192.1","8.79","192.9","1018.605","28.83","71.7","508.9","0"],
    [1744394,"2026-09-04 15:30:00","7246","6.385","196.9","9.41","196.5","1018.6","29.12","68.35","482.0","0"],
    [1744395,"2026-09-04 15:40:00","7247","6.856","200.5","10.09","196.8","1018.512","29.16","69.08","454.4","0"],
    [1744396,"2026-09-04 15:50:00","7248","6.246","194.2","9.21","197.4","1018.617","29.07","70.33","424.2","0"],
    [1744397,"2026-09-04 16:00:00","7249","6.941","193.6","9.08","198.5","1018.529","28.99","70.72","395.5","0"],
    [1744398,"2026-09-04 16:10:00","7250","7.65","193.4","9.93","188.5","1018.47","28.67","74.66","364.8","0"],
    [1744399,"2026-09-04 16:20:00","7251","7.419","193.3","10.16","203.2","1018.3739999999999","28.35","77.54","332.7","0"],
    [1744400,"2026-09-04 16:30:00","7252","6.393","193.4","8.53","188.0","1018.425","28.37","77.92","294.9","0"],
    [1744401,"2026-09-04 16:40:00","7253","6.435","192.1","8.92","191.4","1018.5","28.16","79.42","255.8","0"],
    [1744402,"2026-09-04 16:50:00","7254","6.025","193.0","8.36","191.1","1018.505","28.09","79.82","217.8","0"],
    [1744403,"2026-09-04 17:00:00","7255","6.2410000000000005","194.4","9.08","187.0","1018.4580000000001","28.09","80.1","183.9","0"],
    [1744404,"2026-09-04 17:10:00","7256","7.101","194.4","9.64","193.7","1018.5830000000001","27.93","81.0","151.5","0"],
    [1744405,"2026-09-04 17:20:00","7257","6.4479999999999995","192.7","8.66","192.3","1018.705","27.87","81.5","121.6","0"],
    [1744406,"2026-09-04 17:30:00","7258","6.151","193.5","8.85","203.8","1018.922","27.81","82.3","95.1","0"],
    [1744407,"2026-09-04 17:40:00","7259","5.507000000000001","194.0","7.546","197.5","1018.987","27.74","82.6","71.34","0"],
    [1744408,"2026-09-04 17:50:00","7260","4.7010000000000005","199.2","8.4","196.7","1019.082","27.74","82.5","48.52","0"],
    [1744409,"2026-09-04 18:00:00","7261","4.875","194.9","6.5329999999999995","188.6","1019.029","27.69","83.1","27.66","0"],
    [1744410,"2026-09-04 18:10:00","7262","5.04","191.3","6.827000000000001","196.3","1019.069","27.4","84.7","10.09","0"],
    [1744411,"2026-09-04 18:20:00","7263","4.242","197.7","5.945","188.4","1019.2860000000001","27.37","84.9","2.427","0"],
    [1744412,"2026-09-04 18:30:00","7264","2.011","203.7","4.2139999999999995","189.6","1019.3510000000001","27.45","84.7","0.11699999999999999","0"],
    [1744413,"2026-09-04 18:40:00","7265","2.6910000000000003","196.8","5.031000000000001","202.6","1019.477","27.45","84.3","0.0","0"],
    [1744414,"2026-09-04 18:50:00","7266","2.307","219.3","4.508","191.7","1019.758","27.52","84.0","0.0","0"],
    [1744415,"2026-09-04 19:00:00","7267","3.0380000000000003","201.6","4.377","205.3","1019.905","27.54","83.7","0.0","0"],
    [1744416,"2026-09-04 19:10:00","7268","3.227","203.4","4.933","200.0","1020.033","27.49","84.1","0.0","0"],
    [1744417,"2026-09-04 19:20:00","7269","1.777","211.8","4.475","208.8","1020.176","27.45","84.4","0.0","0"],
    [1744418,"2026-09-04 19:30:00","7270","2.231","253.3","5.2589999999999995","257.2","1020.2439999999999","27.45","84.0","0.0","0"],
    [1744419,"2026-09-04 19:40:00","7271","2.929","251.0","5.1610000000000005","261.7","1020.212","27.45","83.3","0.0","0"],
    [1744420,"2026-09-04 19:50:00","7272","2.26","242.1","4.41","263.8","1020.132","27.54","83.2","0.0","0"],
    [1744421,"2026-09-04 20:00:00","7273","1.742","231.0","3.267","282.1","1020.15","27.52","83.0","0.0","0"],
    [1744422,"2026-09-04 20:10:00","7274","2.512","245.2","4.671","266.5","1020.13","27.5","83.0","0.0","0"],
    [1744423,"2026-09-04 20:20:00","7275","2.6660000000000004","250.2","4.835","258.5","1020.128","27.43","82.8","0.0","0"],
    [1744424,"2026-09-04 20:30:00","7276","2.85","259.8","5.422999999999999","284.1","1020.127","27.42","82.8","0.0","0"],
    [1744425,"2026-09-04 20:40:00","7277","3.065","259.2","4.704","273.3","1020.112","27.37","82.9","0.0","0"],
    [1744426,"2026-09-04 20:50:00","7278","2.8080000000000003","248.3","5.1610000000000005","262.5","1020.13","27.32","83.2","0.0","0"],
    [1744427,"2026-09-04 21:00:00","7279","2.371","246.9","4.475","250.9","1020.0989999999999","27.25","83.2","0.0","0"],
    [1744428,"2026-09-04 21:10:00","7280","2.233","248.5","4.4430000000000005","258.4","1020.058","27.2","83.3","0.0","0"],
    [1744429,"2026-09-04 21:20:00","7281","2.028","246.6","3.7889999999999997","245.6","1020.007","27.12","83.5","0.0","0"],
    [1744430,"2026-09-04 21:30:00","7282","2.41","247.4","3.985","248.8","1020.023","27.06","83.6","0.0","0"],
    [1744431,"2026-09-04 21:40:00","7283","3.112","246.2","5.586","265.6","1019.975","27.03","83.7","0.0","0"],
    [1744432,"2026-09-04 21:50:00","7284","2.8960000000000004","247.3","4.998","268.3","1019.9119999999999","26.92","83.2","0.0","0"],
    [1744433,"2026-09-04 22:00:00","7285","2.157","242.1","4.181","262.7","1019.946","26.86","83.0","0.0","0"],
    [1744434,"2026-09-04 22:10:00","7286","3.139","243.5","5.031000000000001","248.5","1019.941","26.82","82.2","0.0","0"],
    [1744435,"2026-09-04 22:20:00","7287","3.428","239.3","5.325","242.4","1019.9960000000001","26.9","80.5","0.0","0"],
    [1744436,"2026-09-04 22:30:00","7288","3.386","236.3","4.965","235.6","1019.938","27.01","79.54","0.0","0"],
    [1744437,"2026-09-04 22:40:00","7289","2.96","239.0","5.586","246.1","1019.9119999999999","27.14","77.81","0.0","0"],
    [1744438,"2026-09-04 22:50:00","7290","2.676","235.5","4.247","226.4","1019.977","27.14","77.46","0.0","0"],
    [1744439,"2026-09-04 23:00:00","7291","1.77","227.6","3.103","228.9","1019.9680000000001","27.36","75.48","0.0","0"],
    [1744440,"2026-09-04 23:10:00","7292","2.255","239.9","3.887","214.3","1019.9789999999999","27.35","73.46","0.0","0"],
    [1744441,"2026-09-04 23:20:00","7293","2.08","239.1","3.43","226.7","1019.9689999999999","27.41","71.93","0.0","0"],
    [1744442,"2026-09-04 23:30:00","7294","1.93","241.4","3.267","229.8","1019.945","27.37","71.4","0.0","0"],
    [1744443,"2026-09-04 23:40:00","7295","2.055","246.2","3.7889999999999997","259.0","1019.8789999999999","27.29","70.34","0.0","0"],
    [1744444,"2026-09-04 23:50:00","7296","2.044","250.2","3.234","259.5","1019.82","27.11","71.55","0.0","0"],
    [1744445,"2026-09-05 00:00:00","7297","2.0909999999999997","242.3","3.201","268.4","1019.682","26.92","71.94","0.0","0"],
    [1744446,"2026-09-05 00:10:00","7298","1.943","243.1","3.267","232.9","1019.698","26.91","72.14","0.0","0"],
    [1744447,"2026-09-05 00:20:00","7299","2.116","243.4","3.332","262.9","1019.671","26.85","72.43","0.0","0"],
    [1744448,"2026-09-05 00:30:00","7300","1.932","243.5","2.8089999999999997","255.3","1019.675","26.66","73.79","0.0","0"],
    [1744449,"2026-09-05 00:40:00","7301","2.05","242.4","3.201","258.4","1019.62","26.52","74.82","0.0","0"],
    [1744450,"2026-09-05 00:50:00","7302","2.013","246.3","3.365","249.7","1019.546","26.56","74.35","0.0","0"],
    [1744451,"2026-09-05 01:00:00","7303","1.994","252.2","3.136","265.2","1019.5160000000001","26.53","74.98","0.0","0"],
    [1744452,"2026-09-05 01:10:00","7304","2.378","250.9","3.593","260.3","1019.418","26.34","75.98","0.0","0"],
    [1744453,"2026-09-05 01:20:00","7305","2.052","255.6","3.855","260.8","1019.375","26.2","76.31","0.0","0"],
    [1744454,"2026-09-05 01:30:00","7306","1.671","267.7","2.7769999999999997","268.3","1019.382","25.96","77.19","0.0","0"],
    [1744455,"2026-09-05 01:40:00","7307","2.186","253.5","3.201","251.8","1019.3689999999999","25.74","76.83","0.0","0"],
    [1744456,"2026-09-05 01:50:00","7308","2.311","255.6","3.495","261.9","1019.346","25.85","75.26","0.0","0"],
    [1744457,"2026-09-05 02:00:00","7309","1.558","257.7","2.7769999999999997","249.5","1019.36","25.91","75.17","0.0","0"],
    [1744458,"2026-09-05 02:10:00","7310","1.002","248.1","2.417","248.1","1019.3610000000001","25.88","75.38","0.0","0"],
    [1744459,"2026-09-05 02:20:00","7311","1.651","255.8","3.0380000000000003","262.5","1019.3760000000001","25.91","75.33","0.0","0"],
    [1744460,"2026-09-05 02:30:00","7312","1.8530000000000002","244.4","3.267","262.1","1019.388","26.13","75.0","0.0","0"],
    [1744461,"2026-09-05 02:40:00","7313","1.515","248.4","2.319","253.4","1019.313","26.03","75.63","0.0","0"],
    [1744462,"2026-09-05 02:50:00","7314","1.179","248.5","1.993","256.5","1019.314","25.87","75.66","0.0","0"],
    [1744463,"2026-09-05 03:00:00","7315","0.98","249.5","1.7309999999999999","242.8","1019.3760000000001","25.69","75.89","0.0","0"],
    [1744464,"2026-09-05 03:10:00","7316","0.528","247.1","1.307","274.6","1019.375","25.57","75.92","0.0","0"],
    [1744465,"2026-09-05 03:20:00","7317","0.013000000000000001","296.1","0.359","312.5","1019.427","25.54","76.28","0.0","0"],
    [1744466,"2026-09-05 03:30:00","7318","0.0","0.0","0.0","0.0","1019.48","25.67","77.17","0.0","0"],
    [1744467,"2026-09-05 03:40:00","7319","0.254","90.0","0.621","96.9","1019.488","25.82","78.7","0.0","0"],
    [1744468,"2026-09-05 03:50:00","7320","0.5579999999999999","56.01","1.013","59.23","1019.5939999999999","25.59","79.5","0.0","0"],
    [1744469,"2026-09-05 04:00:00","7321","0.062","54.03","0.7509999999999999","61.72","1019.6569999999999","25.58","79.98","0.0","0"],
    [1744470,"2026-09-05 04:10:00","7322","0.8","132.1","1.895","80.6","1019.6210000000001","25.62","80.1","0.0","0"],
    [1744471,"2026-09-05 04:20:00","7323","0.28600000000000003","165.1","0.98","203.7","1019.618","25.59","79.99","0.0","0"],
    [1744472,"2026-09-05 04:30:00","7324","0.743","235.0","1.078","206.3","1019.7","25.56","79.79","0.0","0"],
    [1744473,"2026-09-05 04:40:00","7325","1.08","254.2","1.666","252.5","1019.794","25.32","79.5","0.0","0"],
    [1744474,"2026-09-05 04:50:00","7326","1.268","259.2","2.156","238.0","1019.8889999999999","25.42","78.05","0.0","0"],
    [1744475,"2026-09-05 05:00:00","7327","0.9279999999999999","236.1","2.254","232.8","1019.91","25.51","77.15","0.0","0"],
    [1744476,"2026-09-05 05:10:00","7328","0.977","266.6","1.699","304.5","1019.959","25.42","75.67","0.0","0"]
]}
